sensor_id;sensor_type;location;lat;lon;timestamp;pressure;altitude;pressure_sealevel;temperature;humidity
2675;BME280;1347;42.122;24.746;2022-12-29T00:01:32;100754.53;;;5.07;100.00
2675;BME280;1347;42.122;24.746;2022-12-29T00:04:00;100753.91;;;5.10;100.00
2675;BME280;1347;42.122;24.746;2022-12-29T00:06:29;100766.41;;;5.11;100.00
2675;BME280;1347;42.122;24.746;2022-12-29T00:08:56;100767.13;;;5.16;100.00
2675;BME280;1347;42.122;24.746;2022-12-29T00:11:24;100761.38;;;5.18;100.00
2675;BME280;1347;42.122;24.746;2022-12-29T00:13:52;100759.94;;;5.21;100.00
2675;BME280;1347;42.122;24.746;2022-12-29T00:16:37;100763.28;;;5.17;100.00
2675;BME280;1347;42.122;24.746;2022-12-29T00:19:04;100771.03;;;5.10;100.00
2675;BME280;1347;42.122;24.746;2022-12-29T00:21:33;100769.91;;;5.11;100.00
2675;BME280;1347;42.122;24.746;2022-12-29T00:24:18;100780.41;;;5.18;100.00
2675;BME280;1347;42.122;24.746;2022-12-29T00:27:11;100782.13;;;5.28;100.00
2675;BME280;1347;42.122;24.746;2022-12-29T00:29:56;100780.69;;;5.30;100.00
2675;BME280;1347;42.122;24.746;2022-12-29T00:32:41;100787.13;;;5.34;100.00
2675;BME280;1347;42.122;24.746;2022-12-29T00:35:28;100787.13;;;5.34;100.00
2675;BME280;1347;42.122;24.746;2022-12-29T00:38:00;100792.28;;;5.36;100.00
2675;BME280;1347;42.122;24.746;2022-12-29T00:40:45;100797.28;;;5.42;100.00
2675;BME280;1347;42.122;24.746;2022-12-29T00:43:30;100800.22;;;5.46;100.00
2675;BME280;1347;42.122;24.746;2022-12-29T00:46:14;100806.47;;;5.46;100.00
2675;BME280;1347;42.122;24.746;2022-12-29T00:48:41;100801.31;;;5.59;100.00
2675;BME280;1347;42.122;24.746;2022-12-29T00:51:25;100806.63;;;5.64;100.00
2675;BME280;1347;42.122;24.746;2022-12-29T00:53:54;100811.47;;;5.67;100.00
2675;BME280;1347;42.122;24.746;2022-12-29T00:56:20;100818.09;;;5.74;100.00
2675;BME280;1347;42.122;24.746;2022-12-29T00:58:47;100818.84;;;5.66;100.00
2675;BME280;1347;42.122;24.746;2022-12-29T01:01:14;100810.28;;;5.45;100.00
2675;BME280;1347;42.122;24.746;2022-12-29T01:03:41;100811.28;;;5.63;100.00
2675;BME280;1347;42.122;24.746;2022-12-29T01:06:10;100809.34;;;5.64;100.00
2675;BME280;1347;42.122;24.746;2022-12-29T01:08:37;100807.53;;;5.73;100.00
2675;BME280;1347;42.122;24.746;2022-12-29T01:11:07;100804.19;;;5.76;100.00
2675;BME280;1347;42.122;24.746;2022-12-29T01:13:34;100803.41;;;5.75;100.00
2675;BME280;1347;42.122;24.746;2022-12-29T01:16:03;100798.16;;;5.79;100.00
2675;BME280;1347;42.122;24.746;2022-12-29T01:18:29;100806.00;;;5.80;100.00
2675;BME280;1347;42.122;24.746;2022-12-29T01:21:00;100806.50;;;5.82;100.00
2675;BME280;1347;42.122;24.746;2022-12-29T01:23:27;100802.88;;;5.87;100.00
2675;BME280;1347;42.122;24.746;2022-12-29T01:25:54;100799.34;;;6.00;100.00
2675;BME280;1347;42.122;24.746;2022-12-29T01:28:23;100796.84;;;6.12;100.00
2675;BME280;1347;42.122;24.746;2022-12-29T01:30:50;100795.63;;;6.18;100.00
2675;BME280;1347;42.122;24.746;2022-12-29T01:33:17;100795.13;;;6.16;99.56
2675;BME280;1347;42.122;24.746;2022-12-29T01:35:44;100794.09;;;6.26;99.01
2675;BME280;1347;42.122;24.746;2022-12-29T01:38:11;100789.94;;;6.28;99.09
2675;BME280;1347;42.122;24.746;2022-12-29T01:40:44;100786.22;;;6.24;99.25
2675;BME280;1347;42.122;24.746;2022-12-29T01:43:12;100780.59;;;6.21;99.23
2675;BME280;1347;42.122;24.746;2022-12-29T01:45:45;100776.03;;;6.30;99.18
2675;BME280;1347;42.122;24.746;2022-12-29T01:48:13;100775.34;;;6.24;99.42
2675;BME280;1347;42.122;24.746;2022-12-29T01:50:45;100774.72;;;6.27;99.71
2675;BME280;1347;42.122;24.746;2022-12-29T01:53:16;100770.75;;;6.34;99.20
2675;BME280;1347;42.122;24.746;2022-12-29T01:55:48;100768.88;;;6.43;99.16
2675;BME280;1347;42.122;24.746;2022-12-29T01:58:18;100764.06;;;6.40;98.62
2675;BME280;1347;42.122;24.746;2022-12-29T02:00:48;100759.78;;;6.47;98.50
2675;BME280;1347;42.122;24.746;2022-12-29T02:03:16;100756.88;;;6.44;98.65
2675;BME280;1347;42.122;24.746;2022-12-29T02:05:47;100748.69;;;6.44;98.84
2675;BME280;1347;42.122;24.746;2022-12-29T02:08:16;100748.28;;;6.50;98.30
2675;BME280;1347;42.122;24.746;2022-12-29T02:10:44;100747.28;;;6.46;97.98
2675;BME280;1347;42.122;24.746;2022-12-29T02:13:14;100747.41;;;6.41;97.68
2675;BME280;1347;42.122;24.746;2022-12-29T02:15:51;100744.22;;;6.39;97.64
2675;BME280;1347;42.122;24.746;2022-12-29T02:18:29;100728.59;;;6.31;98.07
2675;BME280;1347;42.122;24.746;2022-12-29T02:21:34;100728.78;;;6.35;97.66
2675;BME280;1347;42.122;24.746;2022-12-29T02:24:19;100727.31;;;6.06;98.61
2675;BME280;1347;42.122;24.746;2022-12-29T02:27:15;100724.59;;;6.06;99.40
2675;BME280;1347;42.122;24.746;2022-12-29T02:30:15;100717.31;;;5.93;99.93
2675;BME280;1347;42.122;24.746;2022-12-29T02:32:52;100714.41;;;5.89;100.00
2675;BME280;1347;42.122;24.746;2022-12-29T02:35:29;100711.16;;;5.87;100.00
2675;BME280;1347;42.122;24.746;2022-12-29T02:38:08;100709.34;;;5.83;100.00
2675;BME280;1347;42.122;24.746;2022-12-29T02:40:42;100713.19;;;5.82;100.00
2675;BME280;1347;42.122;24.746;2022-12-29T02:43:16;100708.38;;;5.79;100.00
2675;BME280;1347;42.122;24.746;2022-12-29T02:45:48;100702.75;;;5.75;100.00
2675;BME280;1347;42.122;24.746;2022-12-29T02:48:25;100704.16;;;5.73;100.00
2675;BME280;1347;42.122;24.746;2022-12-29T02:50:59;100707.03;;;5.54;100.00
2675;BME280;1347;42.122;24.746;2022-12-29T02:53:29;100709.78;;;5.40;100.00
2675;BME280;1347;42.122;24.746;2022-12-29T02:56:14;100709.09;;;5.35;100.00
2675;BME280;1347;42.122;24.746;2022-12-29T02:58:41;100700.44;;;5.33;100.00
2675;BME280;1347;42.122;24.746;2022-12-29T03:01:21;100699.69;;;5.18;100.00
2675;BME280;1347;42.122;24.746;2022-12-29T03:04:07;100708.53;;;5.10;100.00
2675;BME280;1347;42.122;24.746;2022-12-29T03:06:48;100697.25;;;5.03;100.00
2675;BME280;1347;42.122;24.746;2022-12-29T03:09:26;100697.88;;;4.87;100.00
2675;BME280;1347;42.122;24.746;2022-12-29T03:11:59;100696.47;;;4.89;100.00
2675;BME280;1347;42.122;24.746;2022-12-29T03:14:47;100695.06;;;4.78;100.00
2675;BME280;1347;42.122;24.746;2022-12-29T03:17:39;100698.91;;;4.77;100.00
2675;BME280;1347;42.122;24.746;2022-12-29T03:20:10;100696.97;;;4.64;100.00
2675;BME280;1347;42.122;24.746;2022-12-29T03:22:42;100700.09;;;4.57;100.00
2675;BME280;1347;42.122;24.746;2022-12-29T03:25:14;100688.09;;;4.58;100.00
2675;BME280;1347;42.122;24.746;2022-12-29T03:27:48;100689.09;;;4.49;100.00
2675;BME280;1347;42.122;24.746;2022-12-29T03:30:16;100693.53;;;4.44;100.00
2675;BME280;1347;42.122;24.746;2022-12-29T03:32:47;100688.00;;;4.50;100.00
2675;BME280;1347;42.122;24.746;2022-12-29T03:35:19;100685.00;;;4.51;100.00
2675;BME280;1347;42.122;24.746;2022-12-29T03:37:55;100686.91;;;4.51;100.00
2675;BME280;1347;42.122;24.746;2022-12-29T03:40:26;100691.81;;;4.49;100.00
2675;BME280;1347;42.122;24.746;2022-12-29T03:42:54;100691.72;;;4.54;100.00
2675;BME280;1347;42.122;24.746;2022-12-29T03:45:21;100684.81;;;4.48;100.00
2675;BME280;1347;42.122;24.746;2022-12-29T03:47:48;100679.97;;;4.44;100.00
2675;BME280;1347;42.122;24.746;2022-12-29T03:50:17;100683.56;;;4.40;100.00
2675;BME280;1347;42.122;24.746;2022-12-29T03:52:44;100690.53;;;4.46;100.00
2675;BME280;1347;42.122;24.746;2022-12-29T03:55:11;100691.72;;;4.40;100.00
2675;BME280;1347;42.122;24.746;2022-12-29T03:57:38;100680.75;;;4.31;100.00
2675;BME280;1347;42.122;24.746;2022-12-29T04:00:07;100685.28;;;4.36;100.00
2675;BME280;1347;42.122;24.746;2022-12-29T04:02:34;100681.53;;;4.32;100.00
2675;BME280;1347;42.122;24.746;2022-12-29T04:05:01;100685.94;;;4.28;100.00
2675;BME280;1347;42.122;24.746;2022-12-29T04:07:29;100693.44;;;4.36;100.00
2675;BME280;1347;42.122;24.746;2022-12-29T04:09:56;100687.50;;;4.34;100.00
2675;BME280;1347;42.122;24.746;2022-12-29T04:12:23;100695.81;;;4.24;100.00
2675;BME280;1347;42.122;24.746;2022-12-29T04:14:50;100691.25;;;4.19;100.00
2675;BME280;1347;42.122;24.746;2022-12-29T04:17:17;100695.88;;;4.19;100.00
2675;BME280;1347;42.122;24.746;2022-12-29T04:19:44;100694.78;;;4.20;100.00
2675;BME280;1347;42.122;24.746;2022-12-29T04:22:11;100704.13;;;4.14;100.00
2675;BME280;1347;42.122;24.746;2022-12-29T04:24:40;100709.03;;;4.12;100.00
2675;BME280;1347;42.122;24.746;2022-12-29T04:27:07;100700.69;;;4.08;100.00
2675;BME280;1347;42.122;24.746;2022-12-29T04:29:34;100715.06;;;4.08;100.00
2675;BME280;1347;42.122;24.746;2022-12-29T04:32:01;100721.91;;;4.06;100.00
2675;BME280;1347;42.122;24.746;2022-12-29T04:34:28;100717.13;;;3.98;100.00
2675;BME280;1347;42.122;24.746;2022-12-29T04:36:55;100724.97;;;3.99;100.00
2675;BME280;1347;42.122;24.746;2022-12-29T04:39:22;100727.25;;;3.92;100.00
2675;BME280;1347;42.122;24.746;2022-12-29T04:41:50;100727.78;;;3.94;100.00
2675;BME280;1347;42.122;24.746;2022-12-29T04:44:17;100729.97;;;3.92;100.00
2675;BME280;1347;42.122;24.746;2022-12-29T04:46:44;100737.38;;;3.87;100.00
2675;BME280;1347;42.122;24.746;2022-12-29T04:49:11;100737.09;;;3.88;100.00
2675;BME280;1347;42.122;24.746;2022-12-29T04:51:38;100733.06;;;3.86;100.00
2675;BME280;1347;42.122;24.746;2022-12-29T04:54:05;100737.47;;;3.82;100.00
2675;BME280;1347;42.122;24.746;2022-12-29T04:56:32;100734.81;;;3.77;100.00
2675;BME280;1347;42.122;24.746;2022-12-29T04:59:00;100736.13;;;3.79;100.00
2675;BME280;1347;42.122;24.746;2022-12-29T05:01:27;100745.53;;;3.68;100.00
2675;BME280;1347;42.122;24.746;2022-12-29T05:03:54;100748.09;;;3.59;100.00
2675;BME280;1347;42.122;24.746;2022-12-29T05:06:21;100746.28;;;3.55;100.00
2675;BME280;1347;42.122;24.746;2022-12-29T05:08:48;100751.19;;;3.53;100.00
2675;BME280;1347;42.122;24.746;2022-12-29T05:11:14;100753.59;;;3.36;100.00
2675;BME280;1347;42.122;24.746;2022-12-29T05:13:44;100749.16;;;3.21;100.00
2675;BME280;1347;42.122;24.746;2022-12-29T05:16:13;100750.56;;;2.94;100.00
2675;BME280;1347;42.122;24.746;2022-12-29T05:18:40;100746.97;;;2.75;100.00
2675;BME280;1347;42.122;24.746;2022-12-29T05:21:06;100751.72;;;2.65;100.00
2675;BME280;1347;42.122;24.746;2022-12-29T05:23:33;100744.84;;;2.72;100.00
2675;BME280;1347;42.122;24.746;2022-12-29T05:26:00;100741.06;;;2.73;100.00
2675;BME280;1347;42.122;24.746;2022-12-29T05:28:27;100743.22;;;2.71;100.00
2675;BME280;1347;42.122;24.746;2022-12-29T05:30:54;100743.50;;;2.70;100.00
2675;BME280;1347;42.122;24.746;2022-12-29T05:33:22;100734.13;;;2.62;100.00
2675;BME280;1347;42.122;24.746;2022-12-29T05:35:49;100734.66;;;2.64;100.00
2675;BME280;1347;42.122;24.746;2022-12-29T05:38:16;100736.56;;;2.64;100.00
2675;BME280;1347;42.122;24.746;2022-12-29T05:40:43;100736.25;;;2.65;100.00
2675;BME280;1347;42.122;24.746;2022-12-29T05:43:10;100741.97;;;2.64;100.00
2675;BME280;1347;42.122;24.746;2022-12-29T05:45:37;100733.59;;;2.60;100.00
2675;BME280;1347;42.122;24.746;2022-12-29T05:48:05;100729.75;;;2.66;100.00
2675;BME280;1347;42.122;24.746;2022-12-29T05:50:33;100729.25;;;2.64;100.00
2675;BME280;1347;42.122;24.746;2022-12-29T05:53:00;100723.31;;;2.62;100.00
2675;BME280;1347;42.122;24.746;2022-12-29T05:55:27;100718.84;;;2.47;100.00
2675;BME280;1347;42.122;24.746;2022-12-29T05:57:54;100720.03;;;2.36;100.00
2675;BME280;1347;42.122;24.746;2022-12-29T06:00:21;100720.31;;;2.35;100.00
2675;BME280;1347;42.122;24.746;2022-12-29T06:02:48;100722.47;;;2.38;100.00
2675;BME280;1347;42.122;24.746;2022-12-29T06:05:15;100729.47;;;2.39;100.00
2675;BME280;1347;42.122;24.746;2022-12-29T06:07:43;100733.28;;;2.38;100.00
2675;BME280;1347;42.122;24.746;2022-12-29T06:10:10;100739.47;;;2.43;100.00
2675;BME280;1347;42.122;24.746;2022-12-29T06:12:37;100735.72;;;2.34;100.00
2675;BME280;1347;42.122;24.746;2022-12-29T06:15:05;100729.81;;;2.32;100.00
2675;BME280;1347;42.122;24.746;2022-12-29T06:17:33;100725.78;;;2.30;100.00
2675;BME280;1347;42.122;24.746;2022-12-29T06:20:00;100725.50;;;2.31;100.00
2675;BME280;1347;42.122;24.746;2022-12-29T06:22:27;100724.22;;;2.24;100.00
2675;BME280;1347;42.122;24.746;2022-12-29T06:24:56;100733.75;;;2.16;100.00
2675;BME280;1347;42.122;24.746;2022-12-29T06:27:22;100743.28;;;2.08;100.00
2675;BME280;1347;42.122;24.746;2022-12-29T06:29:49;100747.34;;;2.06;100.00
2675;BME280;1347;42.122;24.746;2022-12-29T06:32:16;100747.53;;;2.14;100.00
2675;BME280;1347;42.122;24.746;2022-12-29T06:34:43;100748.59;;;2.18;100.00
2675;BME280;1347;42.122;24.746;2022-12-29T06:37:11;100754.19;;;2.32;100.00
2675;BME280;1347;42.122;24.746;2022-12-29T06:39:38;100749.47;;;2.43;100.00
2675;BME280;1347;42.122;24.746;2022-12-29T06:42:06;100753.81;;;2.68;100.00
2675;BME280;1347;42.122;24.746;2022-12-29T06:44:35;100764.97;;;2.90;100.00
2675;BME280;1347;42.122;24.746;2022-12-29T06:47:02;100766.19;;;3.03;100.00
2675;BME280;1347;42.122;24.746;2022-12-29T06:49:29;100769.06;;;3.11;100.00
2675;BME280;1347;42.122;24.746;2022-12-29T06:51:55;100764.56;;;3.25;100.00
2675;BME280;1347;42.122;24.746;2022-12-29T06:54:23;100765.28;;;3.31;100.00
2675;BME280;1347;42.122;24.746;2022-12-29T06:56:50;100781.47;;;3.36;100.00
2675;BME280;1347;42.122;24.746;2022-12-29T06:59:18;100785.22;;;3.40;100.00
2675;BME280;1347;42.122;24.746;2022-12-29T07:01:45;100789.84;;;3.58;100.00
2675;BME280;1347;42.122;24.746;2022-12-29T07:04:12;100791.28;;;3.75;100.00
2675;BME280;1347;42.122;24.746;2022-12-29T07:06:39;100796.13;;;3.96;100.00
2675;BME280;1347;42.122;24.746;2022-12-29T07:09:07;100785.91;;;4.07;100.00
2675;BME280;1347;42.122;24.746;2022-12-29T07:11:34;100791.66;;;4.19;100.00
2675;BME280;1347;42.122;24.746;2022-12-29T07:14:01;100787.78;;;4.25;100.00
2675;BME280;1347;42.122;24.746;2022-12-29T07:16:29;100792.38;;;4.43;100.00
2675;BME280;1347;42.122;24.746;2022-12-29T07:18:56;100794.22;;;4.62;100.00
2675;BME280;1347;42.122;24.746;2022-12-29T07:21:24;100794.03;;;4.72;100.00
2675;BME280;1347;42.122;24.746;2022-12-29T07:23:51;100789.34;;;4.77;100.00
2675;BME280;1347;42.122;24.746;2022-12-29T07:26:20;100793.78;;;4.87;100.00
2675;BME280;1347;42.122;24.746;2022-12-29T07:28:47;100789.63;;;4.90;100.00
2675;BME280;1347;42.122;24.746;2022-12-29T07:31:16;100782.50;;;4.94;100.00
2675;BME280;1347;42.122;24.746;2022-12-29T07:33:45;100785.63;;;5.01;100.00
2675;BME280;1347;42.122;24.746;2022-12-29T07:36:13;100790.06;;;5.10;100.00
2675;BME280;1347;42.122;24.746;2022-12-29T07:38:41;100784.94;;;5.23;100.00
2675;BME280;1347;42.122;24.746;2022-12-29T07:41:08;100787.66;;;5.36;100.00
2675;BME280;1347;42.122;24.746;2022-12-29T07:43:37;100784.22;;;5.44;100.00
2675;BME280;1347;42.122;24.746;2022-12-29T07:46:04;100787.94;;;5.48;100.00
2675;BME280;1347;42.122;24.746;2022-12-29T07:48:31;100789.41;;;7.59;99.26
2675;BME280;1347;42.122;24.746;2022-12-29T07:51:02;100789.47;;;10.30;87.17
2675;BME280;1347;42.122;24.746;2022-12-29T07:53:29;100792.47;;;12.32;77.78
2675;BME280;1347;42.122;24.746;2022-12-29T07:55:56;100801.56;;;14.24;67.78
2675;BME280;1347;42.122;24.746;2022-12-29T07:58:23;100802.81;;;16.13;62.66
2675;BME280;1347;42.122;24.746;2022-12-29T08:00:53;100795.91;;;17.51;57.18
2675;BME280;1347;42.122;24.746;2022-12-29T08:03:20;100795.63;;;18.36;53.54
2675;BME280;1347;42.122;24.746;2022-12-29T08:05:47;100799.41;;;19.11;51.69
2675;BME280;1347;42.122;24.746;2022-12-29T08:08:15;100797.38;;;19.79;47.12
2675;BME280;1347;42.122;24.746;2022-12-29T08:10:42;100801.19;;;21.04;44.86
2675;BME280;1347;42.122;24.746;2022-12-29T08:13:09;100806.09;;;22.20;42.08
2675;BME280;1347;42.122;24.746;2022-12-29T08:15:37;100803.03;;;22.11;42.29
2675;BME280;1347;42.122;24.746;2022-12-29T08:18:04;100808.25;;;21.23;41.65
2675;BME280;1347;42.122;24.746;2022-12-29T08:20:31;100801.06;;;21.25;42.10
2675;BME280;1347;42.122;24.746;2022-12-29T08:22:58;100795.03;;;21.75;40.83
2675;BME280;1347;42.122;24.746;2022-12-29T08:25:26;100797.53;;;22.37;39.86
2675;BME280;1347;42.122;24.746;2022-12-29T08:27:53;100795.78;;;23.55;38.23
2675;BME280;1347;42.122;24.746;2022-12-29T08:30:20;100795.44;;;23.72;37.01
2675;BME280;1347;42.122;24.746;2022-12-29T08:32:47;100792.81;;;24.44;36.07
2675;BME280;1347;42.122;24.746;2022-12-29T08:35:14;100787.38;;;23.98;35.75
2675;BME280;1347;42.122;24.746;2022-12-29T08:37:41;100794.38;;;24.65;35.43
2675;BME280;1347;42.122;24.746;2022-12-29T08:40:09;100791.72;;;25.59;34.59
2675;BME280;1347;42.122;24.746;2022-12-29T08:42:37;100787.00;;;25.07;34.77
2675;BME280;1347;42.122;24.746;2022-12-29T08:45:05;100784.13;;;25.11;34.66
2675;BME280;1347;42.122;24.746;2022-12-29T08:47:34;100778.50;;;24.58;35.02
2675;BME280;1347;42.122;24.746;2022-12-29T08:50:00;100779.09;;;22.70;37.67
2675;BME280;1347;42.122;24.746;2022-12-29T08:52:27;100776.31;;;23.21;36.76
2675;BME280;1347;42.122;24.746;2022-12-29T08:54:54;100773.28;;;22.88;37.03
2675;BME280;1347;42.122;24.746;2022-12-29T08:57:21;100768.88;;;22.30;37.67
2675;BME280;1347;42.122;24.746;2022-12-29T08:59:49;100764.63;;;21.47;39.17
2675;BME280;1347;42.122;24.746;2022-12-29T09:02:16;100753.09;;;21.41;40.14
2675;BME280;1347;42.122;24.746;2022-12-29T09:04:43;100760.28;;;20.87;40.16
2675;BME280;1347;42.122;24.746;2022-12-29T09:07:10;100754.22;;;21.03;40.45
2675;BME280;1347;42.122;24.746;2022-12-29T09:09:37;100752.59;;;20.46;41.55
2675;BME280;1347;42.122;24.746;2022-12-29T09:12:04;100746.09;;;20.71;41.36
2675;BME280;1347;42.122;24.746;2022-12-29T09:14:31;100745.16;;;20.18;41.61
2675;BME280;1347;42.122;24.746;2022-12-29T09:16:59;100742.75;;;20.17;40.74
2675;BME280;1347;42.122;24.746;2022-12-29T09:19:43;100732.66;;;19.39;43.11
2675;BME280;1347;42.122;24.746;2022-12-29T09:22:10;100738.22;;;19.50;43.46
2675;BME280;1347;42.122;24.746;2022-12-29T09:24:37;100726.66;;;19.73;42.67
2675;BME280;1347;42.122;24.746;2022-12-29T09:27:04;100723.91;;;19.34;43.67
2675;BME280;1347;42.122;24.746;2022-12-29T09:29:31;100724.63;;;19.84;42.58
2675;BME280;1347;42.122;24.746;2022-12-29T09:31:59;100721.09;;;19.66;43.17
2675;BME280;1347;42.122;24.746;2022-12-29T09:34:26;100711.19;;;19.40;43.67
2675;BME280;1347;42.122;24.746;2022-12-29T09:36:53;100712.34;;;19.71;43.44
2675;BME280;1347;42.122;24.746;2022-12-29T09:39:21;100701.31;;;20.37;42.58
2675;BME280;1347;42.122;24.746;2022-12-29T09:41:52;100702.16;;;21.34;41.18
2675;BME280;1347;42.122;24.746;2022-12-29T09:44:31;100700.47;;;22.68;39.70
2675;BME280;1347;42.122;24.746;2022-12-29T09:47:09;100689.28;;;23.38;37.85
2675;BME280;1347;42.122;24.746;2022-12-29T09:49:41;100685.75;;;23.77;37.18
2675;BME280;1347;42.122;24.746;2022-12-29T09:52:14;100679.94;;;22.52;37.84
2675;BME280;1347;42.122;24.746;2022-12-29T09:54:48;100678.09;;;22.68;38.11
2675;BME280;1347;42.122;24.746;2022-12-29T09:57:22;100673.97;;;21.62;38.79
2675;BME280;1347;42.122;24.746;2022-12-29T09:59:54;100673.31;;;20.62;40.36
2675;BME280;1347;42.122;24.746;2022-12-29T10:02:37;100669.06;;;19.59;42.82
2675;BME280;1347;42.122;24.746;2022-12-29T10:05:15;100662.03;;;18.77;43.97
2675;BME280;1347;42.122;24.746;2022-12-29T10:07:49;100660.19;;;17.73;46.53
2675;BME280;1347;42.122;24.746;2022-12-29T10:10:29;100650.94;;;16.41;49.50
2675;BME280;1347;42.122;24.746;2022-12-29T10:13:08;100650.72;;;15.83;50.94
2675;BME280;1347;42.122;24.746;2022-12-29T10:15:47;100644.88;;;15.58;51.79
2675;BME280;1347;42.122;24.746;2022-12-29T10:18:29;100638.72;;;15.12;53.77
2675;BME280;1347;42.122;24.746;2022-12-29T10:21:04;100637.69;;;14.71;54.21
2675;BME280;1347;42.122;24.746;2022-12-29T10:23:38;100634.03;;;14.41;54.93
2675;BME280;1347;42.122;24.746;2022-12-29T10:26:13;100635.75;;;14.07;56.17
2675;BME280;1347;42.122;24.746;2022-12-29T10:28:43;100636.31;;;13.74;57.31
2675;BME280;1347;42.122;24.746;2022-12-29T10:31:18;100628.91;;;13.39;58.93
2675;BME280;1347;42.122;24.746;2022-12-29T10:33:51;100621.41;;;13.20;60.32
2675;BME280;1347;42.122;24.746;2022-12-29T10:36:24;100624.22;;;13.24;60.16
2675;BME280;1347;42.122;24.746;2022-12-29T10:39:04;100613.34;;;13.12;60.43
2675;BME280;1347;42.122;24.746;2022-12-29T10:41:36;100607.13;;;12.99;60.83
2675;BME280;1347;42.122;24.746;2022-12-29T10:44:06;100613.09;;;12.85;61.20
2675;BME280;1347;42.122;24.746;2022-12-29T10:46:36;100615.50;;;12.87;61.42
2675;BME280;1347;42.122;24.746;2022-12-29T10:49:06;100604.09;;;12.69;62.59
2675;BME280;1347;42.122;24.746;2022-12-29T10:51:40;100611.00;;;12.63;62.57
2675;BME280;1347;42.122;24.746;2022-12-29T10:54:13;100603.34;;;12.72;62.25
2675;BME280;1347;42.122;24.746;2022-12-29T10:56:44;100596.38;;;12.43;63.24
2675;BME280;1347;42.122;24.746;2022-12-29T10:59:16;100602.16;;;12.38;63.69
2675;BME280;1347;42.122;24.746;2022-12-29T11:01:53;100596.19;;;12.52;62.95
2675;BME280;1347;42.122;24.746;2022-12-29T11:04:35;100589.13;;;12.51;63.19
2675;BME280;1347;42.122;24.746;2022-12-29T11:07:07;100588.13;;;12.43;63.45
2675;BME280;1347;42.122;24.746;2022-12-29T11:09:36;100587.84;;;12.01;65.13
2675;BME280;1347;42.122;24.746;2022-12-29T11:12:18;100589.97;;;11.64;66.81
2675;BME280;1347;42.122;24.746;2022-12-29T11:14:46;100582.13;;;11.51;66.85
2675;BME280;1347;42.122;24.746;2022-12-29T11:17:15;100576.03;;;11.57;67.31
2675;BME280;1347;42.122;24.746;2022-12-29T11:19:43;100567.63;;;11.78;66.72
2675;BME280;1347;42.122;24.746;2022-12-29T11:22:21;100562.94;;;11.78;66.64
2675;BME280;1347;42.122;24.746;2022-12-29T11:24:50;100564.34;;;11.60;67.05
2675;BME280;1347;42.122;24.746;2022-12-29T11:27:19;100565.53;;;11.59;67.47
2675;BME280;1347;42.122;24.746;2022-12-29T11:29:48;100557.00;;;11.64;67.36
2675;BME280;1347;42.122;24.746;2022-12-29T11:32:18;100563.56;;;11.60;67.42
2675;BME280;1347;42.122;24.746;2022-12-29T11:34:47;100561.59;;;11.60;66.88
2675;BME280;1347;42.122;24.746;2022-12-29T11:37:17;100555.75;;;11.62;67.02
2675;BME280;1347;42.122;24.746;2022-12-29T11:39:50;100561.00;;;11.67;67.38
2675;BME280;1347;42.122;24.746;2022-12-29T11:42:24;100553.13;;;11.65;66.51
2675;BME280;1347;42.122;24.746;2022-12-29T11:45:03;100556.22;;;11.64;67.08
2675;BME280;1347;42.122;24.746;2022-12-29T11:47:32;100559.66;;;11.61;67.19
2675;BME280;1347;42.122;24.746;2022-12-29T11:50:04;100554.34;;;11.80;66.72
2675;BME280;1347;42.122;24.746;2022-12-29T11:52:33;100549.81;;;11.88;66.60
2675;BME280;1347;42.122;24.746;2022-12-29T11:55:03;100544.25;;;11.72;66.55
2675;BME280;1347;42.122;24.746;2022-12-29T11:57:33;100545.38;;;11.83;66.03
2675;BME280;1347;42.122;24.746;2022-12-29T12:00:02;100534.50;;;11.87;66.17
2675;BME280;1347;42.122;24.746;2022-12-29T12:02:36;100537.13;;;11.83;65.70
2675;BME280;1347;42.122;24.746;2022-12-29T12:05:19;100543.25;;;11.92;65.92
2675;BME280;1347;42.122;24.746;2022-12-29T12:07:50;100538.47;;;11.89;65.64
2675;BME280;1347;42.122;24.746;2022-12-29T12:10:23;100526.78;;;11.76;65.75
2675;BME280;1347;42.122;24.746;2022-12-29T12:13:03;100525.31;;;11.67;66.18
2675;BME280;1347;42.122;24.746;2022-12-29T12:15:39;100520.84;;;11.62;66.98
2675;BME280;1347;42.122;24.746;2022-12-29T12:18:10;100518.47;;;11.61;67.04
2675;BME280;1347;42.122;24.746;2022-12-29T12:20:49;100523.34;;;11.67;66.75
2675;BME280;1347;42.122;24.746;2022-12-29T12:23:32;100517.31;;;11.62;67.21
2675;BME280;1347;42.122;24.746;2022-12-29T12:26:07;100505.09;;;11.59;66.96
2675;BME280;1347;42.122;24.746;2022-12-29T12:28:42;100510.38;;;11.52;67.13
2675;BME280;1347;42.122;24.746;2022-12-29T12:31:18;100509.59;;;11.52;67.22
2675;BME280;1347;42.122;24.746;2022-12-29T12:33:51;100504.25;;;11.43;68.53
2675;BME280;1347;42.122;24.746;2022-12-29T12:39:37;100510.09;;;11.14;69.06
2675;BME280;1347;42.122;24.746;2022-12-29T12:42:21;100511.50;;;11.07;69.27
2675;BME280;1347;42.122;24.746;2022-12-29T12:44:59;100496.28;;;11.10;69.35
2675;BME280;1347;42.122;24.746;2022-12-29T12:47:45;100500.47;;;11.20;69.33
2675;BME280;1347;42.122;24.746;2022-12-29T12:50:39;100501.25;;;11.20;68.75
2675;BME280;1347;42.122;24.746;2022-12-29T12:53:22;100498.97;;;11.22;69.30
2675;BME280;1347;42.122;24.746;2022-12-29T12:56:10;100512.50;;;11.15;69.74
2675;BME280;1347;42.122;24.746;2022-12-29T12:58:48;100500.63;;;11.11;69.69
2675;BME280;1347;42.122;24.746;2022-12-29T13:01:28;100507.66;;;10.96;70.51
2675;BME280;1347;42.122;24.746;2022-12-29T13:04:31;100508.91;;;10.99;70.96
2675;BME280;1347;42.122;24.746;2022-12-29T13:07:09;100504.50;;;11.10;70.62
2675;BME280;1347;42.122;24.746;2022-12-29T13:09:53;100508.53;;;11.00;70.79
2675;BME280;1347;42.122;24.746;2022-12-29T13:12:32;100504.25;;;10.87;71.21
2675;BME280;1347;42.122;24.746;2022-12-29T13:15:11;100520.25;;;10.85;71.42
2675;BME280;1347;42.122;24.746;2022-12-29T13:17:44;100508.69;;;10.92;71.12
2675;BME280;1347;42.122;24.746;2022-12-29T13:20:20;100520.91;;;10.94;71.44
2675;BME280;1347;42.122;24.746;2022-12-29T13:22:57;100506.59;;;11.01;71.09
2675;BME280;1347;42.122;24.746;2022-12-29T13:25:35;100509.34;;;11.01;71.17